Time;durP1;ratioP1;P1;durP2;ratioP2;P2;SDS_P1;SDS_P2;PMS_P1;PMS_P2;Temp;Humidity;BMP_temperature;BMP_pressure;BME280_temperature;BME280_humidity;BME280_pressure;Samples;Min_cycle;Max_cycle;Signal;HPM_P1;HPM_P2
2022/07/06 00:02:17;;;;;;;8.55;1.92;;;;;;;44.68;9.14;100597.75;5052499;28;20476;-61
2022/07/06 00:04:44;;;;;;;12.10;1.90;;;;;;;43.09;9.88;100598.03;5052354;28;20391;-61
2022/07/06 00:07:10;;;;;;;8.93;2.08;;;;;;;43.41;10.07;100601.97;5051271;28;20105;-61
2022/07/06 00:09:37;;;;;;;145.85;6.72;;;;;;;44.76;9.14;100591.06;5052187;28;20037;-61
2022/07/06 00:12:04;;;;;;;14.85;2.03;;;;;;;45.38;8.70;100592.44;5052438;28;20025;-62
2022/07/06 00:14:31;;;;;;;10.50;1.60;;;;;;;43.17;10.31;100590.63;5052255;28;20037;-61
2022/07/06 00:16:57;;;;;;;9.95;1.50;;;;;;;44.42;9.27;100581.28;5052467;28;20017;-61
2022/07/06 00:19:24;;;;;;;12.43;1.88;;;;;;;43.72;9.75;100587.13;5050452;28;20040;-61
2022/07/06 00:21:51;;;;;;;8.68;1.73;;;;;;;44.30;9.06;100580.38;5051757;28;20036;-61
2022/07/06 00:24:20;;;;;;;10.02;1.60;;;;;;;43.81;9.52;100584.16;5051452;28;20112;-62
2022/07/06 00:26:47;;;;;;;8.95;1.77;;;;;;;44.30;9.24;100577.50;5051516;28;20029;-62
2022/07/06 00:29:14;;;;;;;11.30;1.70;;;;;;;42.61;10.42;100581.03;5050365;28;20060;-63
2022/07/06 00:31:41;;;;;;;6.95;1.50;;;;;;;42.05;10.49;100579.84;5051357;28;20114;-61
2022/07/06 00:34:07;;;;;;;7.43;1.60;;;;;;;42.04;10.29;100571.78;5034476;28;20053;-61
2022/07/06 00:36:34;;;;;;;10.50;1.58;;;;;;;43.34;10.14;100576.63;5052327;28;20041;-62
2022/07/06 00:39:01;;;;;;;8.68;1.65;;;;;;;44.09;9.63;100569.41;5050385;28;20033;-61
2022/07/06 00:41:27;;;;;;;5.53;1.40;;;;;;;44.75;9.02;100565.78;5050375;28;20036;-62
2022/07/06 00:43:56;;;;;;;8.05;1.75;;;;;;;44.51;9.13;100568.91;5050648;28;20040;-61
2022/07/06 00:46:27;;;;;;;8.82;1.58;;;;;;;42.96;10.18;100568.97;5052159;28;20028;-61
2022/07/06 00:48:54;;;;;;;7.72;1.45;;;;;;;42.70;10.75;100565.84;5051622;28;20122;-61
2022/07/06 00:51:28;;;;;;;7.90;1.40;;;;;;;42.99;9.71;100562.25;5051402;28;20021;-61
2022/07/06 00:53:58;;;;;;;12.70;1.85;;;;;;;42.02;10.18;100566.53;5049886;28;20033;-62
2022/07/06 00:56:26;;;;;;;8.77;1.50;;;;;;;41.56;10.65;100566.78;5047408;28;20024;-62
2022/07/06 00:58:54;;;;;;;6.50;1.73;;;;;;;41.50;10.95;100557.31;5036176;28;20060;-61
2022/07/06 01:01:21;;;;;;;7.60;1.10;;;;;;;42.45;10.26;100570.03;5036507;28;20026;-60
2022/07/06 01:03:48;;;;;;;19.50;1.75;;;;;;;42.10;10.78;100564.91;5036395;28;20037;-61
2022/07/06 01:06:15;;;;;;;9.50;1.50;;;;;;;41.92;10.66;100570.72;5052788;28;20140;-60
2022/07/06 01:08:42;;;;;;;12.02;1.85;;;;;;;41.59;10.68;100571.50;5035061;28;20043;-61
2022/07/06 01:11:09;;;;;;;8.93;1.52;;;;;;;41.46;10.71;100567.28;5036749;28;20061;-61
2022/07/06 01:13:36;;;;;;;12.07;1.65;;;;;;;40.47;11.53;100574.31;5035670;28;20495;-62
2022/07/06 01:16:03;;;;;;;8.50;1.45;;;;;;;40.84;11.12;100559.25;5039130;28;20036;-60
2022/07/06 01:18:30;;;;;;;6.53;1.50;;;;;;;40.37;11.27;100572.69;5038703;28;20483;-62
2022/07/06 01:21:11;;;;;;;8.35;1.50;;;;;;;40.57;11.36;100560.03;5038613;28;20041;-61
2022/07/06 01:23:46;;;;;;;11.10;2.15;;;;;;;41.03;11.13;100572.97;5038462;28;20132;-63
2022/07/06 01:26:19;;;;;;;8.85;1.60;;;;;;;40.33;11.53;100572.06;5036445;28;20029;-63
2022/07/06 01:28:49;;;;;;;9.00;1.50;;;;;;;40.47;11.52;100573.53;5052054;28;20103;-63
2022/07/06 01:31:24;;;;;;;10.73;1.80;;;;;;;40.57;11.50;100565.75;5036176;28;20037;-63
2022/07/06 01:33:53;;;;;;;11.48;2.00;;;;;;;39.93;11.78;100565.66;5039108;28;20033;-63
2022/07/06 01:36:21;;;;;;;8.82;1.70;;;;;;;40.13;11.91;100561.13;5040278;28;20037;-62
2022/07/06 01:38:50;;;;;;;12.23;1.90;;;;;;;39.67;12.17;100563.06;5036805;28;20574;-62
2022/07/06 01:41:18;;;;;;;12.23;1.77;;;;;;;39.81;12.19;100571.00;5038854;28;20017;-63
2022/07/06 01:43:45;;;;;;;8.73;1.63;;;;;;;39.39;12.01;100569.91;5035498;28;20391;-63
2022/07/06 01:46:12;;;;;;;8.68;1.67;;;;;;;38.98;12.61;100580.41;5052058;28;20025;-62
2022/07/06 01:48:40;;;;;;;10.82;1.65;;;;;;;38.51;13.12;100575.63;5035852;28;20034;-62
2022/07/06 01:51:07;;;;;;;15.60;2.03;;;;;;;38.61;13.19;100573.66;5037841;28;20025;-62
2022/07/06 01:53:34;;;;;;;12.98;2.38;;;;;;;38.42;13.11;100578.38;5036984;28;20037;-64
2022/07/06 01:56:01;;;;;;;15.23;1.92;;;;;;;38.28;13.31;100581.75;5050150;28;20120;-62
2022/07/06 01:58:29;;;;;;;9.32;1.80;;;;;;;38.01;13.50;100582.22;5042135;28;20069;-62
2022/07/06 02:00:55;;;;;;;8.00;2.05;;;;;;;37.92;13.33;100591.44;5039032;28;20025;-63
2022/07/06 02:03:22;;;;;;;9.40;1.77;;;;;;;37.89;13.19;100580.22;5038777;28;20036;-62
2022/07/06 02:05:49;;;;;;;7.55;1.77;;;;;;;37.94;13.18;100588.16;5052549;28;20207;-63
2022/07/06 02:08:16;;;;;;;8.52;1.92;;;;;;;37.85;13.42;100591.66;5039101;28;20033;-63
2022/07/06 02:10:42;;;;;;;13.27;2.38;;;;;;;37.74;13.28;100596.91;5034386;28;20025;-62
2022/07/06 02:13:09;;;;;;;6.82;1.80;;;;;;;37.64;13.54;100593.13;5052048;28;20395;-62
2022/07/06 02:15:36;;;;;;;8.27;2.08;;;;;;;37.40;13.45;100589.84;5034430;28;20029;-62
2022/07/06 02:18:03;;;;;;;7.82;1.67;;;;;;;37.29;13.65;100594.25;5031292;28;20051;-63
2022/07/06 02:20:29;;;;;;;8.70;1.70;;;;;;;37.01;14.06;100604.41;5035887;28;20396;-65
2022/07/06 02:22:56;;;;;;;12.18;1.90;;;;;;;36.81;14.25;100599.69;5038902;28;20542;-63
2022/07/06 02:25:23;;;;;;;16.15;1.90;;;;;;;36.70;14.27;100604.84;5038658;28;20047;-63
2022/07/06 02:27:50;;;;;;;10.88;1.83;;;;;;;36.48;14.40;100607.47;5039916;28;20138;-62
2022/07/06 02:30:17;;;;;;;10.75;2.10;;;;;;;36.33;15.31;100611.91;5037016;28;20431;-62
2022/07/06 02:32:44;;;;;;;11.65;1.65;;;;;;;36.21;15.32;100606.94;5052192;28;20022;-63
2022/07/06 02:35:11;;;;;;;13.43;1.95;;;;;;;36.08;15.20;100604.03;5035150;28;20041;-62
2022/07/06 02:37:38;;;;;;;9.23;2.58;;;;;;;35.94;15.92;100610.06;5052219;28;20034;-62
2022/07/06 02:40:05;;;;;;;21.48;2.53;;;;;;;35.77;16.07;100614.88;5034990;28;20098;-62
2022/07/06 02:42:33;;;;;;;6.75;1.92;;;;;;;35.60;16.75;100613.28;5034538;28;20033;-62
2022/07/06 02:45:01;;;;;;;9.90;2.40;;;;;;;35.38;16.62;100612.97;5049236;28;20369;-63
2022/07/06 02:47:29;;;;;;;12.32;2.40;;;;;;;35.33;16.72;100616.25;5034511;28;20382;-63
2022/07/06 02:49:56;;;;;;;18.50;2.90;;;;;;;35.18;17.02;100614.97;5050771;28;20033;-62
2022/07/06 02:52:22;;;;;;;12.95;2.70;;;;;;;35.13;17.17;100614.25;5038297;28;20049;-62
2022/07/06 02:54:50;;;;;;;18.40;2.30;;;;;;;35.06;16.96;100625.72;5038333;28;20037;-62
2022/07/06 02:57:17;;;;;;;14.55;3.08;;;;;;;34.93;17.29;100627.59;5053296;28;20375;-62
2022/07/06 02:59:45;;;;;;;18.05;2.60;;;;;;;34.81;17.34;100625.38;5035204;28;20041;-63
2022/07/06 03:02:13;;;;;;;20.23;2.80;;;;;;;34.70;17.27;100619.97;5038258;28;20025;-62
2022/07/06 03:04:40;;;;;;;19.13;2.33;;;;;;;34.69;17.36;100623.22;5036678;28;20037;-62
2022/07/06 03:07:07;;;;;;;16.85;2.22;;;;;;;34.49;17.24;100623.97;5034537;28;20491;-61
2022/07/06 03:09:34;;;;;;;12.57;2.05;;;;;;;34.33;17.55;100626.66;5042770;28;20618;-62
2022/07/06 03:12:01;;;;;;;14.00;2.17;;;;;;;34.34;17.15;100616.97;5033482;28;20059;-62
2022/07/06 03:14:30;;;;;;;10.30;1.90;;;;;;;34.11;17.49;100605.66;5039700;28;20476;-62
2022/07/06 03:16:56;;;;;;;18.15;1.98;;;;;;;34.24;17.25;100621.56;5034512;28;20021;-61
2022/07/06 03:19:24;;;;;;;16.73;1.70;;;;;;;34.17;17.20;100620.91;5037507;28;20099;-62
2022/07/06 03:21:54;;;;;;;18.52;2.10;;;;;;;34.16;17.31;100620.09;5035802;28;20037;-62
2022/07/06 03:24:21;;;;;;;19.42;2.50;;;;;;;34.12;17.32;100630.66;5040100;28;20056;-62
2022/07/06 03:26:48;;;;;;;16.90;2.58;;;;;;;33.94;17.50;100632.97;5048028;28;20044;-61
2022/07/06 03:29:15;;;;;;;15.43;2.10;;;;;;;33.90;17.47;100633.00;5038283;28;20116;-61
2022/07/06 03:31:44;;;;;;;17.92;2.58;;;;;;;33.96;17.17;100644.63;5032734;28;20025;-62
2022/07/06 03:34:11;;;;;;;19.23;2.30;;;;;;;33.72;17.30;100643.72;5039056;28;20033;-61
2022/07/06 03:36:38;;;;;;;17.75;2.60;;;;;;;33.56;17.90;100640.75;5036469;28;20048;-61
2022/07/06 03:39:05;;;;;;;18.60;2.13;;;;;;;33.59;17.68;100642.72;5035381;28;20072;-62
2022/07/06 03:41:34;;;;;;;20.80;2.38;;;;;;;33.41;17.52;100642.97;5036177;28;20029;-62
2022/07/06 03:44:01;;;;;;;20.08;2.28;;;;;;;33.65;16.65;100643.84;5045290;28;20026;-62
2022/07/06 03:46:29;;;;;;;21.30;2.20;;;;;;;33.63;16.98;100652.72;5034065;28;20053;-61
2022/07/06 03:48:56;;;;;;;29.20;3.38;;;;;;;33.55;16.93;100656.06;5037797;28;20599;-61
2022/07/06 03:51:23;;;;;;;29.13;3.97;;;;;;;33.41;17.28;100651.44;5037290;28;20120;-61
2022/07/06 03:53:50;;;;;;;20.52;4.05;;;;;;;33.34;17.93;100660.75;5034391;28;20030;-61
2022/07/06 03:56:29;;;;;;;29.73;5.07;;;;;;;33.12;18.13;100658.59;5049983;28;20021;-62
2022/07/06 03:59:02;;;;;;;29.45;6.75;;;;;;;33.03;18.05;100662.72;5046983;28;20586;-62
2022/07/06 04:01:33;;;;;;;35.17;6.93;;;;;;;33.00;18.72;100669.19;5041002;28;20048;-61
2022/07/06 04:04:00;;;;;;;30.75;5.80;;;;;;;33.08;18.87;100664.28;5045539;28;20120;-62
2022/07/06 04:06:27;;;;;;;33.67;6.15;;;;;;;32.91;18.87;100671.72;5039716;28;20029;-61
2022/07/06 04:08:54;;;;;;;32.35;5.90;;;;;;;32.64;19.88;100668.72;5040344;28;20495;-61
2022/07/06 04:11:20;;;;;;;39.67;5.95;;;;;;;32.60;20.10;100670.78;5039893;28;20360;-62
2022/07/06 04:13:48;;;;;;;50.15;6.47;;;;;;;32.48;20.46;100668.47;5041426;28;20031;-61
2022/07/06 04:16:14;;;;;;;44.13;6.43;;;;;;;32.43;20.27;100675.38;5036169;28;20068;-61
2022/07/06 04:18:41;;;;;;;29.55;4.88;;;;;;;32.47;20.61;100684.56;5042788;28;20029;-62
2022/07/06 04:21:08;;;;;;;36.67;5.80;;;;;;;32.37;21.00;100687.50;5045706;28;20028;-61
2022/07/06 04:23:37;;;;;;;42.10;5.82;;;;;;;32.32;20.98;100676.69;5042521;28;20059;-61
2022/07/06 04:26:05;;;;;;;31.25;5.65;;;;;;;32.07;22.25;100686.06;5047609;28;20036;-61
2022/07/06 04:28:34;;;;;;;25.33;5.13;;;;;;;32.20;22.10;100696.84;5041366;28;20119;-61
2022/07/06 04:31:01;;;;;;;21.15;4.45;;;;;;;31.88;22.59;100686.59;5049774;28;20063;-61
2022/07/06 04:33:29;;;;;;;49.95;4.85;;;;;;;31.99;23.04;100707.03;5050329;28;20546;-61
2022/07/06 04:35:57;;;;;;;20.90;3.35;;;;;;;31.94;23.82;100710.25;5037635;28;20044;-61
2022/07/06 04:38:29;;;;;;;24.67;3.40;;;;;;;31.72;24.25;100703.13;5052067;28;20083;-61
2022/07/06 04:41:00;;;;;;;20.83;3.65;;;;;;;31.67;24.81;100714.81;5053751;28;20036;-62
2022/07/06 04:43:27;;;;;;;32.28;3.40;;;;;;;31.57;25.24;100717.25;5054996;28;20563;-60
2022/07/06 04:45:54;;;;;;;27.65;3.92;;;;;;;31.38;25.67;100714.13;5053554;28;20402;-61
2022/07/06 04:48:21;;;;;;;37.10;3.63;;;;;;;31.24;26.30;100720.59;5054385;28;20039;-60
2022/07/06 04:50:48;;;;;;;36.20;3.95;;;;;;;31.25;26.79;100720.19;5054401;28;20387;-61
2022/07/06 04:53:21;;;;;;;38.80;4.57;;;;;;;31.28;26.95;100729.81;5054162;28;20135;-61
2022/07/06 04:55:49;;;;;;;34.72;3.90;;;;;;;31.21;27.40;100736.22;5054326;28;20033;-61
2022/07/06 04:58:16;;;;;;;46.28;4.53;;;;;;;31.11;27.42;100731.44;5070491;28;20075;-61
2022/07/06 05:00:43;;;;;;;46.53;4.05;;;;;;;31.13;26.94;100733.84;5071010;28;20044;-61
2022/07/06 05:03:10;;;;;;;32.35;4.15;;;;;;;31.02;27.38;100747.09;5054218;28;20029;-61
2022/07/06 05:05:37;;;;;;;34.00;3.63;;;;;;;30.89;28.18;100753.13;5054116;28;20044;-61
2022/07/06 05:08:04;;;;;;;36.42;3.28;;;;;;;30.74;28.97;100753.53;5053438;28;20025;-61
2022/07/06 05:10:31;;;;;;;38.83;4.07;;;;;;;30.60;29.23;100754.31;5053605;28;20032;-62
2022/07/06 05:12:58;;;;;;;29.65;3.60;;;;;;;30.42;30.17;100756.31;5054909;28;20021;-61
2022/07/06 05:15:26;;;;;;;29.45;3.30;;;;;;;30.32;30.35;100753.06;5053108;28;20029;-61
2022/07/06 05:17:53;;;;;;;25.80;3.50;;;;;;;30.23;31.03;100751.88;5053917;28;20029;-61
2022/07/06 05:20:20;;;;;;;18.08;2.85;;;;;;;30.25;30.90;100750.28;5053971;28;20112;-62
2022/07/06 05:22:48;;;;;;;18.35;3.10;;;;;;;30.19;31.28;100763.09;5054811;28;20029;-61
2022/07/06 05:25:19;;;;;;;22.30;3.13;;;;;;;30.25;31.50;100758.69;5054040;28;20287;-61
2022/07/06 05:27:47;;;;;;;14.27;2.55;;;;;;;30.28;31.33;100766.28;5069833;28;20040;-61
2022/07/06 05:30:15;;;;;;;21.58;2.70;;;;;;;30.15;31.46;100759.47;5053645;28;20037;-61
2022/07/06 05:32:43;;;;;;;17.42;2.63;;;;;;;30.18;31.26;100757.88;5053766;28;20135;-61
2022/07/06 05:35:10;;;;;;;18.30;2.13;;;;;;;30.23;31.04;100768.69;5053092;28;20072;-61
2022/07/06 05:37:37;;;;;;;19.98;2.22;;;;;;;30.13;30.63;100767.47;5053622;28;20037;-61
2022/07/06 05:40:05;;;;;;;10.23;2.00;;;;;;;30.21;29.96;100769.09;5036626;28;20102;-61
2022/07/06 05:42:32;;;;;;;8.45;2.20;;;;;;;30.13;29.51;100769.47;5053608;28;20032;-61
2022/07/06 05:44:59;;;;;;;16.00;2.80;;;;;;;30.10;29.63;100768.25;5036198;28;20040;-61
2022/07/06 05:50:12;;;;;;;11.63;2.85;;;;;;;30.00;29.49;100766.22;5052649;28;20110;-62
2022/07/06 05:52:44;;;;;;;11.70;2.60;;;;;;;29.84;29.55;100771.38;5052429;28;20028;-60
2022/07/06 05:55:13;;;;;;;13.70;2.30;;;;;;;29.79;30.11;100776.13;5050186;28;20094;-60
2022/07/06 05:57:40;;;;;;;16.73;2.50;;;;;;;29.73;30.12;100769.31;5051936;28;20336;-61
2022/07/06 06:00:08;;;;;;;9.88;2.30;;;;;;;29.62;30.63;100785.25;5052145;28;20025;-62
2022/07/06 06:02:43;;;;;;;12.57;2.63;;;;;;;29.52;31.03;100788.03;5053750;28;20025;-61
2022/07/06 06:05:14;;;;;;;24.65;3.78;;;;;;;29.72;31.48;100787.31;5052513;28;20132;-61
2022/07/06 06:07:46;;;;;;;14.30;3.13;;;;;;;29.57;31.56;100791.25;5041877;28;20108;-61
2022/07/06 06:10:14;;;;;;;12.55;3.38;;;;;;;29.45;32.64;100792.41;5048032;28;20025;-61
2022/07/06 06:12:42;;;;;;;14.35;3.65;;;;;;;29.43;33.81;100796.75;5032002;28;20055;-61
2022/07/06 06:15:10;;;;;;;44.70;8.55;;;;;;;29.40;33.85;100808.72;5062587;28;20033;-61
2022/07/06 06:17:38;;;;;;;22.08;10.52;;;;;;;29.38;33.58;100794.31;5063919;28;20028;-61
2022/07/06 06:20:07;;;;;;;10.43;2.83;;;;;;;29.17;34.05;100801.41;5046193;28;20036;-61
2022/07/06 06:22:46;;;;;;;18.65;3.78;;;;;;;29.03;33.94;100809.69;5046246;28;20021;-61
2022/07/06 06:25:15;;;;;;;43.20;4.88;;;;;;;29.00;34.29;100807.66;5042918;28;20479;-61
2022/07/06 06:27:42;;;;;;;13.98;4.25;;;;;;;28.86;34.90;100811.16;5059455;28;20037;-62
2022/07/06 06:30:09;;;;;;;11.63;3.15;;;;;;;28.82;36.83;100815.88;5048942;28;20125;-61
2022/07/06 06:32:36;;;;;;;13.45;3.88;;;;;;;28.84;37.17;100818.28;5044233;28;20075;-60
2022/07/06 06:35:03;;;;;;;25.75;17.05;;;;;;;28.64;35.72;100820.50;5064809;28;20522;-60
2022/07/06 06:37:31;;;;;;;27.00;6.85;;;;;;;28.62;36.96;100820.09;5052481;28;20475;-60
2022/07/06 06:39:57;;;;;;;12.85;4.80;;;;;;;28.62;36.93;100819.28;5051960;28;20097;-60
2022/07/06 06:42:24;;;;;;;11.57;3.70;;;;;;;28.71;37.31;100828.97;5052046;28;20037;-61
2022/07/06 06:44:52;;;;;;;13.25;3.00;;;;;;;28.55;37.89;100820.84;5050646;28;20054;-60
2022/07/06 06:47:20;;;;;;;13.55;3.88;;;;;;;28.61;38.33;100834.47;5052699;28;20025;-60
2022/07/06 06:49:47;;;;;;;9.55;2.83;;;;;;;28.44;38.63;100825.53;5052687;28;20016;-60
2022/07/06 06:52:14;;;;;;;10.40;2.72;;;;;;;28.44;40.08;100825.53;5052034;28;20359;-60
2022/07/06 06:54:41;;;;;;;10.82;2.30;;;;;;;28.40;40.55;100823.88;5051248;28;20029;-61
2022/07/06 06:57:08;;;;;;;41.40;4.20;;;;;;;28.30;40.90;100825.34;5049103;28;20029;-61
2022/07/06 06:59:34;;;;;;;22.35;16.65;;;;;;;28.44;39.11;100831.09;5052548;28;20036;-61
2022/07/06 07:02:01;;;;;;;12.80;5.80;;;;;;;28.45;39.77;100834.72;5053341;28;20112;-62
2022/07/06 07:04:29;;;;;;;12.57;4.30;;;;;;;28.43;40.24;100832.28;5052885;28;20021;-61
2022/07/06 07:06:55;;;;;;;8.45;2.72;;;;;;;28.25;42.48;100837.69;5052799;28;20064;-61
2022/07/06 07:09:22;;;;;;;25.55;3.63;;;;;;;28.16;42.62;100827.97;5051965;28;20112;-61
2022/07/06 07:11:49;;;;;;;39.08;4.55;;;;;;;28.10;42.42;100838.69;5052799;28;20494;-61
2022/07/06 07:14:15;;;;;;;10.70;2.80;;;;;;;28.24;42.10;100833.25;5052898;28;20115;-61
2022/07/06 07:16:42;;;;;;;9.27;2.50;;;;;;;28.21;43.04;100827.63;5052856;28;20104;-60
2022/07/06 07:19:09;;;;;;;10.60;2.55;;;;;;;28.17;42.49;100832.38;5052650;28;20090;-61
2022/07/06 07:21:35;;;;;;;12.77;2.75;;;;;;;28.24;42.45;100818.50;5051595;28;20487;-61
2022/07/06 07:24:02;;;;;;;13.18;2.78;;;;;;;28.26;43.20;100810.56;5052287;28;20055;-61
2022/07/06 07:26:29;;;;;;;11.20;6.60;;;;;;;28.11;43.24;100817.94;5052861;28;20028;-61
2022/07/06 07:28:56;;;;;;;13.55;6.40;;;;;;;28.00;43.50;100817.00;5052530;28;20037;-61
2022/07/06 07:31:22;;;;;;;10.73;4.28;;;;;;;28.04;43.53;100822.66;5052732;28;20108;-61
2022/07/06 07:33:49;;;;;;;11.77;3.10;;;;;;;28.02;45.20;100820.25;5052817;28;20078;-61
2022/07/06 07:36:16;;;;;;;10.50;3.30;;;;;;;27.96;44.13;100822.53;5052525;28;20055;-60
2022/07/06 07:38:43;;;;;;;59.80;3.90;;;;;;;27.95;45.70;100825.72;5052734;28;20404;-60
2022/07/06 07:41:11;;;;;;;17.75;3.05;;;;;;;27.84;45.44;100822.00;5052235;28;20032;-60
2022/07/06 07:43:37;;;;;;;13.05;2.65;;;;;;;27.76;46.77;100818.31;5052768;28;20529;-61
2022/07/06 07:46:04;;;;;;;11.18;1.83;;;;;;;27.81;46.73;100820.75;5052530;28;20465;-61
2022/07/06 07:48:31;;;;;;;11.02;2.17;;;;;;;27.82;47.34;100816.78;5052342;28;20120;-61
2022/07/06 07:50:57;;;;;;;9.85;2.70;;;;;;;27.82;46.97;100816.78;5051918;28;20021;-61
2022/07/06 07:53:24;;;;;;;14.07;3.70;;;;;;;27.76;46.73;100812.72;5052186;28;20036;-61
2022/07/06 07:55:51;;;;;;;17.95;5.15;;;;;;;27.84;46.10;100819.22;5052677;28;20083;-62
2022/07/06 07:58:18;;;;;;;16.25;5.15;;;;;;;27.75;47.33;100816.69;5052705;28;20403;-61
2022/07/06 08:00:45;;;;;;;17.23;3.47;;;;;;;27.71;47.10;100815.84;5067970;28;20033;-61
2022/07/06 08:03:13;;;;;;;12.05;2.90;;;;;;;27.69;48.72;100823.81;5051052;28;20394;-61
2022/07/06 08:05:39;;;;;;;7.35;2.50;;;;;;;27.75;48.64;100816.69;5052413;28;20097;-61
2022/07/06 08:08:06;;;;;;;11.90;3.08;;;;;;;27.72;49.62;100814.66;5054471;28;20035;-62
2022/07/06 08:10:33;;;;;;;10.45;3.30;;;;;;;27.70;49.04;100819.81;5056347;28;20497;-61
2022/07/06 08:13:00;;;;;;;15.30;3.20;;;;;;;27.57;49.42;100819.22;5055222;28;20048;-61
2022/07/06 08:15:27;;;;;;;15.52;3.17;;;;;;;27.54;49.57;100810.78;5056392;28;20036;-61
2022/07/06 08:17:54;;;;;;;18.50;3.28;;;;;;;27.54;50.23;100822.78;5056452;28;20495;-60
2022/07/06 08:20:21;;;;;;;15.02;3.80;;;;;;;27.58;49.82;100822.81;5056470;28;20029;-61
2022/07/06 08:22:47;;;;;;;16.27;3.55;;;;;;;27.55;50.17;100818.00;5055995;28;20033;-61
2022/07/06 08:25:14;;;;;;;13.65;5.05;;;;;;;27.45;50.96;100825.03;5071582;28;20037;-61
2022/07/06 08:27:41;;;;;;;45.75;6.53;;;;;;;27.48;50.25;100826.28;5056211;28;20073;-61
2022/07/06 08:30:08;;;;;;;72.47;6.20;;;;;;;27.46;51.28;100829.41;5055781;28;20028;-61
2022/07/06 08:32:39;;;;;;;13.45;3.75;;;;;;;27.48;51.59;100817.91;5056206;28;20037;-61
2022/07/06 08:35:07;;;;;;;14.43;4.10;;;;;;;27.46;51.58;100832.22;5055639;28;20052;-61
2022/07/06 08:37:33;;;;;;;39.80;4.03;;;;;;;27.48;52.25;100823.47;5055982;28;20065;-60
2022/07/06 08:40:00;;;;;;;10.52;3.30;;;;;;;27.49;52.18;100825.09;5055272;28;20025;-60
2022/07/06 08:42:31;;;;;;;14.13;3.65;;;;;;;27.35;52.67;100829.28;5055813;28;20035;-60
2022/07/06 08:45:05;;;;;;;9.95;3.40;;;;;;;27.34;52.88;100832.44;5055705;28;20028;-60
2022/07/06 08:47:35;;;;;;;14.15;3.35;;;;;;;27.35;53.24;100842.44;5055769;28;20044;-60
2022/07/06 08:50:04;;;;;;;9.93;3.55;;;;;;;27.33;52.20;100836.41;5055766;28;20017;-60
2022/07/06 08:52:32;;;;;;;11.60;4.38;;;;;;;27.31;52.54;100839.59;5055361;28;20037;-60
2022/07/06 08:54:59;;;;;;;9.55;4.70;;;;;;;27.21;53.15;100842.22;5070864;28;20044;-61
2022/07/06 08:57:27;;;;;;;12.43;3.60;;;;;;;27.19;53.59;100839.78;5055408;28;20029;-60
2022/07/06 08:59:53;;;;;;;9.18;3.30;;;;;;;27.13;53.83;100838.50;5055441;28;20040;-60
2022/07/06 09:02:25;;;;;;;9.90;3.00;;;;;;;27.13;54.90;100838.50;5070843;28;20073;-61
2022/07/06 09:04:56;;;;;;;6.38;2.70;;;;;;;27.03;55.01;100836.34;5055086;28;20029;-60
2022/07/06 09:07:24;;;;;;;11.95;2.88;;;;;;;26.99;55.27;100835.47;5055292;28;20123;-60
2022/07/06 09:09:53;;;;;;;9.43;2.95;;;;;;;26.94;55.50;100833.00;5055283;28;20440;-60
2022/07/06 09:12:19;;;;;;;7.68;3.28;;;;;;;26.97;55.28;100838.63;5055163;28;20103;-60
2022/07/06 09:14:46;;;;;;;33.10;4.95;;;;;;;26.97;55.65;100832.25;5055140;28;20028;-60
2022/07/06 09:17:13;;;;;;;14.65;3.30;;;;;;;26.94;55.71;100835.78;5055090;28;20108;-61
2022/07/06 09:19:39;;;;;;;12.02;3.90;;;;;;;26.88;55.68;100835.25;5054194;28;20033;-61
2022/07/06 09:22:06;;;;;;;9.30;3.47;;;;;;;26.79;55.27;100823.56;5055108;28;20387;-61
2022/07/06 09:24:41;;;;;;;14.05;3.70;;;;;;;26.77;55.22;100835.09;5054431;28;20029;-61
2022/07/06 09:27:17;;;;;;;11.90;4.07;;;;;;;26.68;54.15;100836.50;5054827;28;20063;-61
2022/07/06 09:29:45;;;;;;;28.20;4.75;;;;;;;26.68;53.84;100836.50;5054888;28;20025;-61
2022/07/06 09:32:12;;;;;;;11.63;2.75;;;;;;;26.65;55.28;100834.47;5054953;28;20391;-61
2022/07/06 09:34:46;;;;;;;30.83;3.72;;;;;;;26.63;54.89;100834.03;5054576;28;20040;-60
2022/07/06 09:37:14;;;;;;;10.00;2.17;;;;;;;26.64;54.74;100825.31;5055113;28;20438;-60
2022/07/06 09:39:42;;;;;;;6.50;1.90;;;;;;;26.55;54.37;100835.88;5054784;28;20126;-60
2022/07/06 09:42:09;;;;;;;6.57;2.20;;;;;;;26.46;54.65;100836.13;5054404;28;20398;-60
2022/07/06 09:44:38;;;;;;;8.02;2.15;;;;;;;26.39;54.93;100835.16;5054715;28;20040;-60
2022/07/06 09:47:08;;;;;;;8.20;2.30;;;;;;;26.30;54.96;100835.38;5054406;28;20029;-60
2022/07/06 09:49:35;;;;;;;5.30;1.83;;;;;;;26.22;55.52;100827.28;5054621;28;20037;-60
2022/07/06 09:52:05;;;;;;;6.18;1.77;;;;;;;26.32;55.53;100837.81;5054604;28;20051;-60
2022/07/06 09:54:34;;;;;;;6.93;2.05;;;;;;;26.16;56.02;100833.13;5054314;28;20058;-60
2022/07/06 09:57:02;;;;;;;6.43;2.72;;;;;;;26.23;55.66;100838.03;5054384;28;20064;-60
2022/07/06 09:59:31;;;;;;;37.47;9.60;;;;;;;26.12;55.27;100826.69;5054457;28;20025;-60
2022/07/06 10:02:00;;;;;;;21.10;13.73;;;;;;;26.18;53.20;100843.91;5054473;28;20037;-60
2022/07/06 10:04:28;;;;;;;19.90;12.15;;;;;;;26.15;55.55;100842.66;5054317;28;20090;-60
2022/07/06 10:06:56;;;;;;;29.67;17.67;;;;;;;26.12;55.77;100840.59;5054267;28;20098;-60
2022/07/06 10:09:25;;;;;;;34.00;26.83;;;;;;;26.15;55.30;100842.66;5054286;28;20029;-60
2022/07/06 10:12:00;;;;;;;68.30;24.83;;;;;;;26.10;55.51;100844.94;5052940;28;20510;-59
2022/07/06 10:14:29;;;;;;;22.10;16.38;;;;;;;26.03;55.90;100847.56;5054162;28;20037;-60
2022/07/06 10:17:01;;;;;;;42.10;14.23;;;;;;;25.92;56.07;100850.13;5054086;28;20479;-59
2022/07/06 10:19:29;;;;;;;32.33;13.20;;;;;;;26.00;56.20;100843.53;5053897;28;20578;-60
2022/07/06 10:22:00;;;;;;;56.30;15.20;;;;;;;25.87;56.02;100856.00;5053936;28;20106;-60
2022/07/06 10:24:29;;;;;;;292.38;23.88;;;;;;;25.84;56.17;100851.13;5053415;28;20029;-60
2022/07/06 10:26:56;;;;;;;92.18;7.70;;;;;;;25.79;56.30;100849.47;5053595;28;20071;-60
2022/07/06 10:29:25;;;;;;;51.13;4.03;;;;;;;25.79;56.46;100857.81;5053913;28;20068;-60
2022/07/06 10:31:53;;;;;;;6.70;2.17;;;;;;;25.74;56.48;100860.09;5053860;28;20036;-60
2022/07/06 10:34:20;;;;;;;26.63;3.65;;;;;;;25.71;54.72;100860.81;5053550;28;20095;-60
2022/07/06 10:36:53;;;;;;;6.93;1.70;;;;;;;25.76;56.18;100875.25;5053768;28;20033;-60
2022/07/06 10:42:45;;;;;;;13.20;2.20;;;;;;;25.68;55.64;100872.69;5053824;28;20032;-60
2022/07/06 10:45:15;;;;;;;5.82;1.70;;;;;;;25.56;56.31;100874.38;5053271;28;20032;-60
2022/07/06 10:47:42;;;;;;;8.80;1.95;;;;;;;25.51;56.65;100879.44;5053457;28;20094;-60
2022/07/06 10:50:11;;;;;;;10.13;2.05;;;;;;;25.48;56.36;100878.16;5053325;28;20016;-60
2022/07/06 10:53:00;;;;;;;16.77;2.50;;;;;;;25.55;56.57;100872.75;5053246;28;20032;-60
2022/07/06 10:55:33;;;;;;;10.00;1.90;;;;;;;25.52;56.65;100875.47;5053903;28;20039;-60
2022/07/06 10:58:00;;;;;;;7.72;2.28;;;;;;;25.48;56.39;100888.47;5053400;28;20040;-60
2022/07/06 11:00:42;;;;;;;7.50;1.88;;;;;;;25.51;56.48;100874.66;5053197;28;20045;-60
2022/07/06 11:03:42;;;;;;;7.07;2.35;;;;;;;25.52;55.69;100890.19;5053269;28;20136;-59
2022/07/06 11:06:24;;;;;;;6.25;2.65;;;;;;;25.42;55.69;100879.59;5053074;28;20037;-60
2022/07/06 11:08:56;;;;;;;24.05;3.90;;;;;;;25.47;54.61;100884.06;5053094;28;20396;-61
2022/07/06 11:11:33;;;;;;;8.38;3.38;;;;;;;25.44;54.83;100891.19;5052905;28;20033;-60
2022/07/06 11:14:04;;;;;;;9.73;3.50;;;;;;;25.35;54.70;100896.13;5053285;28;20394;-60
2022/07/06 11:16:39;;;;;;;11.35;4.53;;;;;;;25.35;55.72;100893.34;5053024;28;20059;-60
2022/07/06 11:19:09;;;;;;;;;;;;;;;25.35;55.92;100904.50;5053277;28;20037;-60
2022/07/06 11:21:37;;;;;;;14.82;6.10;;;;;;;25.22;55.36;100894.63;5052971;28;20013;-60
2022/07/06 11:24:06;;;;;;;19.77;7.40;;;;;;;25.24;55.33;100895.06;5052432;28;20087;-60
2022/07/06 11:26:35;;;;;;;11.23;6.65;;;;;;;25.15;55.19;100897.22;5052782;28;20033;-61
2022/07/06 11:29:07;;;;;;;10.10;4.40;;;;;;;25.23;55.48;100897.03;5052679;28;20033;-60
2022/07/06 11:31:36;;;;;;;14.07;5.07;;;;;;;25.15;55.47;100891.66;5052730;28;20038;-60